sensor_id;sensor_type;location;lat;lon;timestamp;pressure;altitude;pressure_sealevel;temperature;humidity
44979;BME280;67464;52.438;-1.904;2023-04-01T00:01:20;98497.56;;;10.98;87.78
44979;BME280;67464;52.438;-1.904;2023-04-01T00:03:45;98500.81;;;11.04;88.83
44979;BME280;67464;52.438;-1.904;2023-04-01T00:06:13;98504.81;;;11.35;85.37
44979;BME280;67464;52.438;-1.904;2023-04-01T00:08:36;98506.19;;;11.68;85.29
44979;BME280;67464;52.438;-1.904;2023-04-01T00:11:01;98507.67;;;11.45;83.57
44979;BME280;67464;52.438;-1.904;2023-04-01T00:13:27;98509.08;;;11.36;85.17
44979;BME280;67464;52.438;-1.904;2023-04-01T00:15:52;98511.89;;;10.70;90.08
44979;BME280;67464;52.438;-1.904;2023-04-01T00:18:17;98513.72;;;11.17;86.19
44979;BME280;67464;52.438;-1.904;2023-04-01T00:20:44;98514.11;;;11.18;84.88
44979;BME280;67464;52.438;-1.904;2023-04-01T00:23:07;98519.15;;;10.52;88.85
44979;BME280;67464;52.438;-1.904;2023-04-01T00:25:32;98521.44;;;11.21;85.37
44979;BME280;67464;52.438;-1.904;2023-04-01T00:27:58;98522.62;;;11.14;84.21
44979;BME280;67464;52.438;-1.904;2023-04-01T00:30:23;98527.02;;;12.10;80.90
44979;BME280;67464;52.438;-1.904;2023-04-01T00:32:51;98527.75;;;12.43;77.19
44979;BME280;67464;52.438;-1.904;2023-04-01T00:35:13;98527.20;;;11.83;77.58
44979;BME280;67464;52.438;-1.904;2023-04-01T00:37:39;98527.30;;;11.95;77.03
44979;BME280;67464;52.438;-1.904;2023-04-01T00:40:07;98530.47;;;11.37;81.66
44979;BME280;67464;52.438;-1.904;2023-04-01T00:42:30;98535.80;;;11.72;83.05
44979;BME280;67464;52.438;-1.904;2023-04-01T00:44:56;98537.01;;;11.53;82.10
44979;BME280;67464;52.438;-1.904;2023-04-01T00:47:21;98540.86;;;11.25;81.62
44979;BME280;67464;52.438;-1.904;2023-04-01T00:49:50;98540.61;;;11.35;82.15
44979;BME280;67464;52.438;-1.904;2023-04-01T00:52:15;98543.37;;;10.85;88.17
44979;BME280;67464;52.438;-1.904;2023-04-01T00:54:38;98543.99;;;11.04;83.64
44979;BME280;67464;52.438;-1.904;2023-04-01T00:57:06;98547.22;;;11.45;82.93
44979;BME280;67464;52.438;-1.904;2023-04-01T00:59:30;98549.85;;;11.55;80.74
44979;BME280;67464;52.438;-1.904;2023-04-01T01:01:54;98552.62;;;11.34;80.23
44979;BME280;67464;52.438;-1.904;2023-04-01T01:04:22;98558.46;;;10.69;87.56
44979;BME280;67464;52.438;-1.904;2023-04-01T01:06:50;98554.71;;;11.65;84.54
44979;BME280;67464;52.438;-1.904;2023-04-01T01:09:20;98557.86;;;11.34;82.37
44979;BME280;67464;52.438;-1.904;2023-04-01T01:11:39;98558.46;;;11.53;80.53
44979;BME280;67464;52.438;-1.904;2023-04-01T01:14:07;98557.45;;;11.48;82.16
44979;BME280;67464;52.438;-1.904;2023-04-01T01:16:27;98558.73;;;11.36;81.93
44979;BME280;67464;52.438;-1.904;2023-04-01T01:18:54;98563.73;;;11.99;77.36
44979;BME280;67464;52.438;-1.904;2023-04-01T01:21:29;98565.79;;;11.03;82.58
44979;BME280;67464;52.438;-1.904;2023-04-01T01:23:56;98565.34;;;11.55;84.02
44979;BME280;67464;52.438;-1.904;2023-04-01T01:26:23;98569.90;;;10.68;87.12
44979;BME280;67464;52.438;-1.904;2023-04-01T01:28:41;98572.95;;;10.73;90.35
44979;BME280;67464;52.438;-1.904;2023-04-01T01:31:03;98573.71;;;10.81;86.69
44979;BME280;67464;52.438;-1.904;2023-04-01T01:33:34;98576.50;;;10.96;87.61
44979;BME280;67464;52.438;-1.904;2023-04-01T01:35:50;98574.17;;;11.21;84.00
44979;BME280;67464;52.438;-1.904;2023-04-01T01:38:17;98576.37;;;11.83;79.97
44979;BME280;67464;52.438;-1.904;2023-04-01T01:40:43;98580.70;;;10.61;87.78
44979;BME280;67464;52.438;-1.904;2023-04-01T01:43:08;98585.70;;;10.43;88.44
44979;BME280;67464;52.438;-1.904;2023-04-01T01:45:32;98585.12;;;10.00;93.77
44979;BME280;67464;52.438;-1.904;2023-04-01T01:47:56;98590.53;;;10.03;93.67
44979;BME280;67464;52.438;-1.904;2023-04-01T01:50:22;98596.98;;;9.09;100.00
44979;BME280;67464;52.438;-1.904;2023-04-01T01:52:47;98594.46;;;9.42;99.99
44979;BME280;67464;52.438;-1.904;2023-04-01T01:55:26;98595.81;;;10.07;96.59
44979;BME280;67464;52.438;-1.904;2023-04-01T01:57:38;98597.07;;;10.10;94.35
44979;BME280;67464;52.438;-1.904;2023-04-01T02:00:07;98598.81;;;11.17;87.92
44979;BME280;67464;52.438;-1.904;2023-04-01T02:02:30;98599.04;;;11.24;81.33
44979;BME280;67464;52.438;-1.904;2023-04-01T02:04:55;98599.07;;;11.48;79.51
44979;BME280;67464;52.438;-1.904;2023-04-01T02:07:23;98601.31;;;11.50;79.52
44979;BME280;67464;52.438;-1.904;2023-04-01T02:09:46;98607.78;;;10.31;84.64
44979;BME280;67464;52.438;-1.904;2023-04-01T02:12:14;98611.94;;;10.19;88.28
44979;BME280;67464;52.438;-1.904;2023-04-01T02:14:40;98617.90;;;10.05;90.80
44979;BME280;67464;52.438;-1.904;2023-04-01T02:17:06;98623.67;;;9.35;96.34
44979;BME280;67464;52.438;-1.904;2023-04-01T02:19:34;98625.58;;;9.25;100.00
44979;BME280;67464;52.438;-1.904;2023-04-01T02:21:56;98621.59;;;9.87;98.64
44979;BME280;67464;52.438;-1.904;2023-04-01T02:24:20;98621.10;;;10.39;92.16
44979;BME280;67464;52.438;-1.904;2023-04-01T02:26:45;98626.72;;;11.03;85.45
44979;BME280;67464;52.438;-1.904;2023-04-01T02:29:11;98629.60;;;9.68;91.86
44979;BME280;67464;52.438;-1.904;2023-04-01T02:31:35;98638.75;;;9.50;95.53
44979;BME280;67464;52.438;-1.904;2023-04-01T02:34:00;98643.08;;;8.43;100.00
44979;BME280;67464;52.438;-1.904;2023-04-01T02:36:26;98647.23;;;8.48;100.00
44979;BME280;67464;52.438;-1.904;2023-04-01T02:38:52;98652.01;;;8.78;100.00
44979;BME280;67464;52.438;-1.904;2023-04-01T02:41:16;98648.46;;;8.94;100.00
44979;BME280;67464;52.438;-1.904;2023-04-01T02:43:42;98652.67;;;8.42;100.00
44979;BME280;67464;52.438;-1.904;2023-04-01T02:46:08;98651.79;;;8.58;100.00
44979;BME280;67464;52.438;-1.904;2023-04-01T02:48:34;98656.51;;;8.61;100.00
44979;BME280;67464;52.438;-1.904;2023-04-01T02:50:59;98658.33;;;9.13;100.00
44979;BME280;67464;52.438;-1.904;2023-04-01T02:53:24;98657.17;;;8.38;100.00
44979;BME280;67464;52.438;-1.904;2023-04-01T02:55:50;98657.27;;;8.16;100.00
44979;BME280;67464;52.438;-1.904;2023-04-01T02:58:15;98657.13;;;8.54;100.00
44979;BME280;67464;52.438;-1.904;2023-04-01T03:00:41;98657.05;;;8.51;100.00
44979;BME280;67464;52.438;-1.904;2023-04-01T03:03:06;98657.22;;;8.58;100.00
44979;BME280;67464;52.438;-1.904;2023-04-01T03:05:32;98661.66;;;8.19;100.00
44979;BME280;67464;52.438;-1.904;2023-04-01T03:07:57;98667.37;;;8.98;100.00
44979;BME280;67464;52.438;-1.904;2023-04-01T03:10:23;98670.85;;;9.79;95.59
44979;BME280;67464;52.438;-1.904;2023-04-01T03:12:48;98675.44;;;8.99;95.22
44979;BME280;67464;52.438;-1.904;2023-04-01T03:15:14;98673.61;;;8.97;93.95
44979;BME280;67464;52.438;-1.904;2023-04-01T03:17:40;98675.91;;;8.65;91.64
44979;BME280;67464;52.438;-1.904;2023-04-01T03:20:07;98677.53;;;8.48;93.79
44979;BME280;67464;52.438;-1.904;2023-04-01T03:22:31;98682.55;;;7.78;100.00
44979;BME280;67464;52.438;-1.904;2023-04-01T03:24:57;98683.55;;;7.80;100.00
44979;BME280;67464;52.438;-1.904;2023-04-01T03:27:22;98686.00;;;7.80;100.00
44979;BME280;67464;52.438;-1.904;2023-04-01T03:29:48;98687.49;;;7.99;100.00
44979;BME280;67464;52.438;-1.904;2023-04-01T03:32:13;98691.86;;;7.89;100.00
44979;BME280;67464;52.438;-1.904;2023-04-01T03:34:39;98697.92;;;7.54;100.00
44979;BME280;67464;52.438;-1.904;2023-04-01T03:37:05;98694.05;;;7.58;100.00
44979;BME280;67464;52.438;-1.904;2023-04-01T03:39:31;98700.07;;;8.56;98.59
44979;BME280;67464;52.438;-1.904;2023-04-01T03:41:56;98708.47;;;8.95;95.68
44979;BME280;67464;52.438;-1.904;2023-04-01T03:44:22;98708.24;;;8.38;93.34
44979;BME280;67464;52.438;-1.904;2023-04-01T03:46:47;98714.08;;;8.02;100.00
44979;BME280;67464;52.438;-1.904;2023-04-01T03:49:13;98714.10;;;8.75;98.20
44979;BME280;67464;52.438;-1.904;2023-04-01T03:51:39;98714.23;;;8.85;96.95
44979;BME280;67464;52.438;-1.904;2023-04-01T03:54:05;98713.65;;;8.79;90.49
44979;BME280;67464;52.438;-1.904;2023-04-01T03:56:30;98716.13;;;8.25;93.70
44979;BME280;67464;52.438;-1.904;2023-04-01T03:58:56;98719.26;;;8.64;97.23
44979;BME280;67464;52.438;-1.904;2023-04-01T04:01:22;98720.31;;;8.52;98.64
44979;BME280;67464;52.438;-1.904;2023-04-01T04:03:47;98722.20;;;8.63;94.13
44979;BME280;67464;52.438;-1.904;2023-04-01T04:06:13;98724.92;;;8.65;94.54
44979;BME280;67464;52.438;-1.904;2023-04-01T04:08:38;98726.91;;;8.79;93.20
44979;BME280;67464;52.438;-1.904;2023-04-01T04:11:04;98732.18;;;8.60;96.48
44979;BME280;67464;52.438;-1.904;2023-04-01T04:13:30;98735.94;;;8.98;93.50
44979;BME280;67464;52.438;-1.904;2023-04-01T04:15:55;98736.50;;;8.82;89.25
44979;BME280;67464;52.438;-1.904;2023-04-01T04:18:21;98740.62;;;8.55;91.18
44979;BME280;67464;52.438;-1.904;2023-04-01T04:20:47;98744.69;;;8.21;92.63
44979;BME280;67464;52.438;-1.904;2023-04-01T04:23:11;98747.60;;;8.62;95.34
44979;BME280;67464;52.438;-1.904;2023-04-01T04:25:37;98755.56;;;8.27;94.87
44979;BME280;67464;52.438;-1.904;2023-04-01T04:28:03;98752.42;;;7.84;96.06
44979;BME280;67464;52.438;-1.904;2023-04-01T04:30:28;98755.34;;;8.31;98.14
44979;BME280;67464;52.438;-1.904;2023-04-01T04:32:54;98760.73;;;8.12;100.00
44979;BME280;67464;52.438;-1.904;2023-04-01T04:35:20;98759.21;;;8.13;98.03
44979;BME280;67464;52.438;-1.904;2023-04-01T04:37:45;98765.48;;;7.97;100.00
44979;BME280;67464;52.438;-1.904;2023-04-01T04:40:11;98767.38;;;8.44;100.00
44979;BME280;67464;52.438;-1.904;2023-04-01T04:42:37;98768.56;;;8.93;92.36
44979;BME280;67464;52.438;-1.904;2023-04-01T04:45:03;98771.80;;;8.22;94.69
44979;BME280;67464;52.438;-1.904;2023-04-01T04:47:28;98773.99;;;8.09;95.01
44979;BME280;67464;52.438;-1.904;2023-04-01T04:49:54;98776.78;;;8.73;89.14
44979;BME280;67464;52.438;-1.904;2023-04-01T04:52:20;98775.94;;;9.48;88.75
44979;BME280;67464;52.438;-1.904;2023-04-01T04:54:45;98777.21;;;9.91;81.86
44979;BME280;67464;52.438;-1.904;2023-04-01T04:57:10;98775.44;;;9.49;81.26
44979;BME280;67464;52.438;-1.904;2023-04-01T04:59:36;98772.89;;;9.35;84.07
44979;BME280;67464;52.438;-1.904;2023-04-01T05:02:01;98775.24;;;9.57;79.49
44979;BME280;67464;52.438;-1.904;2023-04-01T05:04:27;98779.69;;;9.18;82.46
44979;BME280;67464;52.438;-1.904;2023-04-01T05:06:53;98781.07;;;9.43;86.66
44979;BME280;67464;52.438;-1.904;2023-04-01T05:09:18;98785.70;;;9.16;86.05
44979;BME280;67464;52.438;-1.904;2023-04-01T05:11:44;98787.43;;;8.21;85.33
44979;BME280;67464;52.438;-1.904;2023-04-01T05:14:13;98789.18;;;7.24;94.00
44979;BME280;67464;52.438;-1.904;2023-04-01T05:16:35;98800.17;;;8.21;94.58
44979;BME280;67464;52.438;-1.904;2023-04-01T05:19:01;98804.51;;;8.05;98.86
44979;BME280;67464;52.438;-1.904;2023-04-01T05:21:27;98805.64;;;8.23;94.83
44979;BME280;67464;52.438;-1.904;2023-04-01T05:23:52;98808.87;;;8.31;92.20
44979;BME280;67464;52.438;-1.904;2023-04-01T05:26:18;98814.42;;;8.14;97.33
44979;BME280;67464;52.438;-1.904;2023-04-01T05:28:43;98813.65;;;8.80;91.96
44979;BME280;67464;52.438;-1.904;2023-04-01T05:31:09;98813.34;;;8.91;89.88
44979;BME280;67464;52.438;-1.904;2023-04-01T05:33:35;98819.12;;;9.00;92.03
44979;BME280;67464;52.438;-1.904;2023-04-01T05:36:07;98825.25;;;8.74;90.56
44979;BME280;67464;52.438;-1.904;2023-04-01T05:38:25;98828.38;;;8.53;91.80
44979;BME280;67464;52.438;-1.904;2023-04-01T05:40:51;98833.60;;;7.20;96.81
44979;BME280;67464;52.438;-1.904;2023-04-01T05:43:17;98837.83;;;7.52;100.00
44979;BME280;67464;52.438;-1.904;2023-04-01T05:45:42;98843.62;;;7.54;100.00
44979;BME280;67464;52.438;-1.904;2023-04-01T05:48:08;98849.11;;;8.06;100.00
44979;BME280;67464;52.438;-1.904;2023-04-01T05:50:33;98851.25;;;7.27;100.00
44979;BME280;67464;52.438;-1.904;2023-04-01T05:52:59;98853.49;;;7.52;100.00
44979;BME280;67464;52.438;-1.904;2023-04-01T05:55:24;98855.91;;;7.46;99.98
44979;BME280;67464;52.438;-1.904;2023-04-01T05:57:50;98858.64;;;8.02;97.36
44979;BME280;67464;52.438;-1.904;2023-04-01T06:00:17;98856.14;;;8.59;92.89
44979;BME280;67464;52.438;-1.904;2023-04-01T06:02:42;98857.70;;;9.19;92.20
44979;BME280;67464;52.438;-1.904;2023-04-01T06:05:14;98863.82;;;8.26;90.64
44979;BME280;67464;52.438;-1.904;2023-04-01T06:07:32;98866.75;;;8.40;90.51
44979;BME280;67464;52.438;-1.904;2023-04-01T06:09:59;98870.83;;;8.68;89.80
44979;BME280;67464;52.438;-1.904;2023-04-01T06:12:35;98876.45;;;7.82;92.45
44979;BME280;67464;52.438;-1.904;2023-04-01T06:14:54;98878.39;;;8.26;89.87
44979;BME280;67464;52.438;-1.904;2023-04-01T06:17:24;98880.86;;;7.77;96.42
44979;BME280;67464;52.438;-1.904;2023-04-01T06:19:44;98883.58;;;7.74;94.67
44979;BME280;67464;52.438;-1.904;2023-04-01T06:22:18;98887.63;;;8.51;92.92
44979;BME280;67464;52.438;-1.904;2023-04-01T06:24:42;98887.07;;;8.68;91.80
44979;BME280;67464;52.438;-1.904;2023-04-01T06:27:02;98887.17;;;8.43;83.91
44979;BME280;67464;52.438;-1.904;2023-04-01T06:32:01;98897.00;;;7.67;94.27
44979;BME280;67464;52.438;-1.904;2023-04-01T06:34:26;98901.45;;;7.38;100.00
44979;BME280;67464;52.438;-1.904;2023-04-01T06:36:49;98899.69;;;7.02;97.91
44979;BME280;67464;52.438;-1.904;2023-04-01T06:39:16;98896.81;;;7.16;99.86
44979;BME280;67464;52.438;-1.904;2023-04-01T06:44:01;98901.60;;;7.32;98.33
44979;BME280;67464;52.438;-1.904;2023-04-01T06:46:29;98914.38;;;7.18;100.00
44979;BME280;67464;52.438;-1.904;2023-04-01T06:49:02;98914.96;;;8.05;96.58
44979;BME280;67464;52.438;-1.904;2023-04-01T06:51:21;98918.73;;;7.94;88.92
44979;BME280;67464;52.438;-1.904;2023-04-01T06:53:44;98920.79;;;8.61;88.74
44979;BME280;67464;52.438;-1.904;2023-04-01T06:56:07;98926.94;;;8.61;88.64
44979;BME280;67464;52.438;-1.904;2023-04-01T06:58:34;98928.03;;;7.84;90.11
44979;BME280;67464;52.438;-1.904;2023-04-01T07:00:58;98931.03;;;7.57;96.43
44979;BME280;67464;52.438;-1.904;2023-04-01T07:03:29;98930.07;;;8.76;86.21
44979;BME280;67464;52.438;-1.904;2023-04-01T07:05:47;98935.94;;;7.75;85.44
44979;BME280;67464;52.438;-1.904;2023-04-01T07:08:17;98941.75;;;7.88;89.62
44979;BME280;67464;52.438;-1.904;2023-04-01T07:10:44;98940.96;;;7.96;85.73
44979;BME280;67464;52.438;-1.904;2023-04-01T07:13:06;98946.16;;;8.63;90.03
44979;BME280;67464;52.438;-1.904;2023-04-01T07:15:34;98948.69;;;8.42;85.02
44979;BME280;67464;52.438;-1.904;2023-04-01T07:17:58;98949.86;;;7.55;87.69
44979;BME280;67464;52.438;-1.904;2023-04-01T07:20:24;98953.70;;;7.72;95.01
44979;BME280;67464;52.438;-1.904;2023-04-01T07:22:49;98960.02;;;8.15;89.04
44979;BME280;67464;52.438;-1.904;2023-04-01T07:25:14;98966.44;;;7.37;91.48
44979;BME280;67464;52.438;-1.904;2023-04-01T07:27:37;98970.26;;;7.80;91.81
44979;BME280;67464;52.438;-1.904;2023-04-01T07:30:13;98975.47;;;8.25;86.23
44979;BME280;67464;52.438;-1.904;2023-04-01T07:32:34;98978.56;;;7.88;87.86
44979;BME280;67464;52.438;-1.904;2023-04-01T07:35:05;98988.69;;;7.09;94.07
44979;BME280;67464;52.438;-1.904;2023-04-01T07:37:27;98983.53;;;7.90;93.08
44979;BME280;67464;52.438;-1.904;2023-04-01T07:39:52;98991.81;;;7.70;90.16
44979;BME280;67464;52.438;-1.904;2023-04-01T07:42:16;98995.10;;;7.74;89.42
44979;BME280;67464;52.438;-1.904;2023-04-01T07:44:44;99005.69;;;7.98;89.68
44979;BME280;67464;52.438;-1.904;2023-04-01T07:47:12;99010.52;;;8.63;83.32
44979;BME280;67464;52.438;-1.904;2023-04-01T07:49:36;99012.93;;;8.90;79.36
44979;BME280;67464;52.438;-1.904;2023-04-01T07:51:59;99017.98;;;8.69;82.83
44979;BME280;67464;52.438;-1.904;2023-04-01T07:54:24;99021.97;;;8.23;83.61
44979;BME280;67464;52.438;-1.904;2023-04-01T07:56:49;99029.07;;;8.37;84.39
44979;BME280;67464;52.438;-1.904;2023-04-01T07:59:16;99032.48;;;7.55;84.89
44979;BME280;67464;52.438;-1.904;2023-04-01T08:01:41;99035.00;;;7.81;89.23
44979;BME280;67464;52.438;-1.904;2023-04-01T08:04:17;99031.26;;;8.23;85.12
44979;BME280;67464;52.438;-1.904;2023-04-01T08:06:33;99045.16;;;8.01;85.42
44979;BME280;67464;52.438;-1.904;2023-04-01T08:09:00;99051.99;;;7.41;92.88
44979;BME280;67464;52.438;-1.904;2023-04-01T08:11:28;99050.25;;;7.32;98.30
44979;BME280;67464;52.438;-1.904;2023-04-01T08:13:52;99053.05;;;7.73;92.53
44979;BME280;67464;52.438;-1.904;2023-04-01T08:16:16;99053.79;;;7.74;88.77
44979;BME280;67464;52.438;-1.904;2023-04-01T08:18:41;99058.84;;;7.57;85.61
44979;BME280;67464;52.438;-1.904;2023-04-01T08:21:06;99054.97;;;8.65;85.32
44979;BME280;67464;52.438;-1.904;2023-04-01T08:23:31;99063.83;;;8.24;83.89
44979;BME280;67464;52.438;-1.904;2023-04-01T08:26:00;99066.35;;;7.75;85.95
44979;BME280;67464;52.438;-1.904;2023-04-01T08:28:24;99073.80;;;7.93;85.82
44979;BME280;67464;52.438;-1.904;2023-04-01T08:30:49;99072.45;;;8.51;82.26
44979;BME280;67464;52.438;-1.904;2023-04-01T08:33:16;99074.98;;;8.85;83.24
44979;BME280;67464;52.438;-1.904;2023-04-01T08:35:39;99077.85;;;9.05;76.03
44979;BME280;67464;52.438;-1.904;2023-04-01T08:38:07;99079.70;;;8.33;83.36
44979;BME280;67464;52.438;-1.904;2023-04-01T08:40:41;99079.49;;;8.36;84.45
44979;BME280;67464;52.438;-1.904;2023-04-01T08:43:05;99085.40;;;8.07;83.34
44979;BME280;67464;52.438;-1.904;2023-04-01T08:45:26;99086.31;;;8.15;83.68
44979;BME280;67464;52.438;-1.904;2023-04-01T08:47:52;99093.77;;;7.74;85.23
44979;BME280;67464;52.438;-1.904;2023-04-01T08:50:30;99094.51;;;8.26;83.11
44979;BME280;67464;52.438;-1.904;2023-04-01T08:52:37;99095.41;;;8.83;80.89
44979;BME280;67464;52.438;-1.904;2023-04-01T08:57:40;99105.06;;;8.00;85.26
44979;BME280;67464;52.438;-1.904;2023-04-01T09:00:00;99110.63;;;8.05;86.27
44979;BME280;67464;52.438;-1.904;2023-04-01T09:07:24;99121.93;;;8.25;82.83
44979;BME280;67464;52.438;-1.904;2023-04-01T09:09:53;99126.85;;;7.70;86.80
44979;BME280;67464;52.438;-1.904;2023-04-01T09:12:17;99126.07;;;8.52;80.30
44979;BME280;67464;52.438;-1.904;2023-04-01T09:14:40;99126.27;;;9.03;76.70
44979;BME280;67464;52.438;-1.904;2023-04-01T09:17:09;99132.25;;;9.41;76.55
44979;BME280;67464;52.438;-1.904;2023-04-01T09:19:24;99132.99;;;9.32;72.76
44979;BME280;67464;52.438;-1.904;2023-04-01T09:22:03;99134.68;;;9.57;73.79
44979;BME280;67464;52.438;-1.904;2023-04-01T09:24:24;99138.53;;;9.98;69.93
44979;BME280;67464;52.438;-1.904;2023-04-01T09:26:48;99145.89;;;9.60;69.76
44979;BME280;67464;52.438;-1.904;2023-04-01T09:29:13;99147.10;;;9.20;71.62
44979;BME280;67464;52.438;-1.904;2023-04-01T09:31:48;99145.29;;;9.12;76.12
44979;BME280;67464;52.438;-1.904;2023-04-01T09:34:11;99146.89;;;9.32;76.69
44979;BME280;67464;52.438;-1.904;2023-04-01T09:36:32;99148.61;;;9.94;70.30
44979;BME280;67464;52.438;-1.904;2023-04-01T09:38:55;99151.48;;;10.12;71.10
44979;BME280;67464;52.438;-1.904;2023-04-01T09:41:18;99151.05;;;9.67;64.41
44979;BME280;67464;52.438;-1.904;2023-04-01T09:43:48;99151.17;;;9.32;67.91
44979;BME280;67464;52.438;-1.904;2023-04-01T09:46:11;99153.11;;;9.96;68.32
44979;BME280;67464;52.438;-1.904;2023-04-01T09:48:39;99155.82;;;10.35;65.51
44979;BME280;67464;52.438;-1.904;2023-04-01T09:51:00;99155.88;;;11.85;59.88
44979;BME280;67464;52.438;-1.904;2023-04-01T09:53:30;99158.37;;;11.88;58.18
44979;BME280;67464;52.438;-1.904;2023-04-01T09:55:57;99159.83;;;11.22;56.65
44979;BME280;67464;52.438;-1.904;2023-04-01T10:00:55;99166.86;;;11.94;56.92
44979;BME280;67464;52.438;-1.904;2023-04-01T10:03:16;99167.94;;;10.48;59.84
44979;BME280;67464;52.438;-1.904;2023-04-01T10:10:32;99180.80;;;11.43;64.17
44979;BME280;67464;52.438;-1.904;2023-04-01T10:15:29;99189.27;;;12.16;57.41
44979;BME280;67464;52.438;-1.904;2023-04-01T10:17:50;99193.55;;;12.08;58.17
44979;BME280;67464;52.438;-1.904;2023-04-01T10:20:12;99197.54;;;12.42;56.64
44979;BME280;67464;52.438;-1.904;2023-04-01T10:22:36;99198.15;;;12.63;57.80
44979;BME280;67464;52.438;-1.904;2023-04-01T10:30:00;99208.72;;;11.96;56.61
44979;BME280;67464;52.438;-1.904;2023-04-01T10:34:44;99211.00;;;12.93;55.44
44979;BME280;67464;52.438;-1.904;2023-04-01T10:37:03;99215.57;;;12.62;54.37
44979;BME280;67464;52.438;-1.904;2023-04-01T10:39:37;99218.04;;;11.99;56.20
44979;BME280;67464;52.438;-1.904;2023-04-01T10:51:43;99229.06;;;14.90;48.45
44979;BME280;67464;52.438;-1.904;2023-04-01T10:54:14;99234.74;;;14.85;50.06
44979;BME280;67464;52.438;-1.904;2023-04-01T10:56:32;99234.45;;;14.16;48.09
44979;BME280;67464;52.438;-1.904;2023-04-01T10:59:03;99241.84;;;15.04;48.87
44979;BME280;67464;52.438;-1.904;2023-04-01T11:01:22;99240.31;;;14.01;48.53
44979;BME280;67464;52.438;-1.904;2023-04-01T11:03:46;99250.37;;;12.93;52.59
44979;BME280;67464;52.438;-1.904;2023-04-01T11:13:46;99257.84;;;13.05;53.66
44979;BME280;67464;52.438;-1.904;2023-04-01T11:16:00;99259.22;;;13.93;50.44
44979;BME280;67464;52.438;-1.904;2023-04-01T11:25:39;99268.14;;;14.48;46.25
44979;BME280;67464;52.438;-1.904;2023-04-01T11:28:09;99274.05;;;14.11;48.31
44979;BME280;67464;52.438;-1.904;2023-04-01T11:30:28;99279.50;;;14.40;47.66
44979;BME280;67464;52.438;-1.904;2023-04-01T11:32:52;99278.34;;;13.96;47.60
44979;BME280;67464;52.438;-1.904;2023-04-01T11:35:31;99282.96;;;14.19;50.40
44979;BME280;67464;52.438;-1.904;2023-04-01T11:37:41;99291.67;;;14.98;48.91
44979;BME280;67464;52.438;-1.904;2023-04-01T11:40:12;99289.61;;;14.83;44.99
44979;BME280;67464;52.438;-1.904;2023-04-01T11:42:35;99299.09;;;13.65;50.39
44979;BME280;67464;52.438;-1.904;2023-04-01T11:45:03;99301.23;;;14.67;48.61
44979;BME280;67464;52.438;-1.904;2023-04-01T11:47:30;99299.66;;;15.74;46.21
44979;BME280;67464;52.438;-1.904;2023-04-01T11:49:55;99299.51;;;16.38;42.95
44979;BME280;67464;52.438;-1.904;2023-04-01T11:52:21;99307.97;;;15.95;44.33
44979;BME280;67464;52.438;-1.904;2023-04-01T11:54:51;99310.56;;;15.69;46.50
44979;BME280;67464;52.438;-1.904;2023-04-01T11:57:13;99316.55;;;15.72;45.83
44979;BME280;67464;52.438;-1.904;2023-04-01T11:59:42;99317.38;;;16.07;44.01
44979;BME280;67464;52.438;-1.904;2023-04-01T12:01:59;99322.28;;;15.11;45.25
44979;BME280;67464;52.438;-1.904;2023-04-01T12:04:36;99331.16;;;15.22;46.25
44979;BME280;67464;52.438;-1.904;2023-04-01T12:06:49;99331.14;;;15.57;42.50
44979;BME280;67464;52.438;-1.904;2023-04-01T12:09:14;99337.01;;;15.50;46.28
44979;BME280;67464;52.438;-1.904;2023-04-01T12:11:41;99339.98;;;15.43;46.01
44979;BME280;67464;52.438;-1.904;2023-04-01T12:14:05;99348.55;;;15.07;45.64
44979;BME280;67464;52.438;-1.904;2023-04-01T12:18:54;99352.81;;;14.30;45.81
44979;BME280;67464;52.438;-1.904;2023-04-01T12:21:23;99353.73;;;15.42;44.82
44979;BME280;67464;52.438;-1.904;2023-04-01T12:23:56;99357.41;;;15.81;47.30
44979;BME280;67464;52.438;-1.904;2023-04-01T12:26:18;99356.22;;;16.53;42.56
44979;BME280;67464;52.438;-1.904;2023-04-01T12:28:43;99361.60;;;14.76;44.66
44979;BME280;67464;52.438;-1.904;2023-04-01T12:31:04;99364.44;;;14.12;44.10
44979;BME280;67464;52.438;-1.904;2023-04-01T12:33:34;99366.01;;;15.19;46.81
44979;BME280;67464;52.438;-1.904;2023-04-01T12:35:56;99362.75;;;15.49;44.84
44979;BME280;67464;52.438;-1.904;2023-04-01T12:38:23;99364.07;;;16.17;41.67
44979;BME280;67464;52.438;-1.904;2023-04-01T12:40:51;99369.58;;;15.47;43.14
44979;BME280;67464;52.438;-1.904;2023-04-01T12:43:19;99372.01;;;15.73;44.93
44979;BME280;67464;52.438;-1.904;2023-04-01T12:45:32;99374.05;;;15.11;45.16
44979;BME280;67464;52.438;-1.904;2023-04-01T12:48:08;99377.59;;;14.37;45.37
44979;BME280;67464;52.438;-1.904;2023-04-01T12:50:28;99382.36;;;15.15;47.45
44979;BME280;67464;52.438;-1.904;2023-04-01T12:53:00;99390.06;;;13.97;44.83
44979;BME280;67464;52.438;-1.904;2023-04-01T12:55:28;99393.23;;;13.77;47.13
44979;BME280;67464;52.438;-1.904;2023-04-01T13:00:18;99396.28;;;13.58;46.78
44979;BME280;67464;52.438;-1.904;2023-04-01T13:02:40;99404.25;;;13.55;45.87
44979;BME280;67464;52.438;-1.904;2023-04-01T13:05:15;99402.97;;;14.23;46.72
44979;BME280;67464;52.438;-1.904;2023-04-01T13:07:38;99406.38;;;13.97;48.11
44979;BME280;67464;52.438;-1.904;2023-04-01T13:09:55;99406.93;;;13.86;44.91
44979;BME280;67464;52.438;-1.904;2023-04-01T13:17:10;99417.17;;;13.49;48.55
44979;BME280;67464;52.438;-1.904;2023-04-01T13:19:36;99423.48;;;13.31;49.58
44979;BME280;67464;52.438;-1.904;2023-04-01T13:21:58;99426.40;;;12.55;50.53
44979;BME280;67464;52.438;-1.904;2023-04-01T13:24:29;99429.55;;;12.63;53.49
44979;BME280;67464;52.438;-1.904;2023-04-01T13:26:53;99432.06;;;11.82;49.52
44979;BME280;67464;52.438;-1.904;2023-04-01T13:29:14;99437.50;;;12.28;51.80
44979;BME280;67464;52.438;-1.904;2023-04-01T13:31:49;99444.45;;;11.62;53.05
44979;BME280;67464;52.438;-1.904;2023-04-01T13:34:14;99446.06;;;11.95;53.68
44979;BME280;67464;52.438;-1.904;2023-04-01T13:36:34;99449.45;;;11.39;54.74
44979;BME280;67464;52.438;-1.904;2023-04-01T13:39:06;99452.00;;;10.74;54.99
44979;BME280;67464;52.438;-1.904;2023-04-01T13:41:29;99452.71;;;11.83;53.48
44979;BME280;67464;52.438;-1.904;2023-04-01T13:43:49;99458.22;;;11.80;52.63
44979;BME280;67464;52.438;-1.904;2023-04-01T13:46:25;99455.62;;;12.72;53.80
44979;BME280;67464;52.438;-1.904;2023-04-01T13:48:52;99456.98;;;11.98;49.85